Time;durP1;ratioP1;P1;durP2;ratioP2;P2;SDS_P1;SDS_P2;PMS_P1;PMS_P2;Temp;Humidity;BMP_temperature;BMP_pressure;BME280_temperature;BME280_humidity;BME280_pressure;Samples;Min_cycle;Max_cycle;Signal;HPM_P1;HPM_P2
2021/06/29 00:02:23;;;;;;;24.35;21.85;;;21.20;86.20;;;;;;5095754;28;20020;-36
2021/06/29 00:04:53;;;;;;;24.17;21.73;;;21.20;86.40;;;;;;5095540;28;20151;-36
2021/06/29 00:07:19;;;;;;;23.00;20.70;;;21.20;86.40;;;;;;5096013;28;20024;-36
2021/06/29 00:09:45;;;;;;;25.17;22.48;;;21.10;86.90;;;;;;5095252;28;20024;-35
2021/06/29 00:12:12;;;;;;;22.20;19.90;;;21.20;86.70;;;;;;5095301;28;20544;-36
2021/06/29 00:14:38;;;;;;;25.00;19.73;;;21.20;86.70;;;;;;5076687;28;20406;-36
2021/06/29 00:17:04;;;;;;;22.05;18.58;;;21.00;87.10;;;;;;5095350;28;20024;-37
2021/06/29 00:19:29;;;;;;;23.63;21.13;;;21.00;87.20;;;;;;5095137;28;20063;-37
2021/06/29 00:21:55;;;;;;;26.70;21.85;;;21.00;87.40;;;;;;5095133;28;20107;-37
2021/06/29 00:24:21;;;;;;;21.92;19.65;;;21.00;87.70;;;;;;5094785;28;20031;-37
2021/06/29 00:26:46;;;;;;;26.35;21.73;;;21.00;87.70;;;;;;5094566;28;20024;-37
2021/06/29 00:29:12;;;;;;;22.95;19.95;;;20.90;87.90;;;;;;5076843;28;20067;-36
2021/06/29 00:31:38;;;;;;;24.70;20.40;;;20.90;88.00;;;;;;5095947;28;20035;-37
2021/06/29 00:34:03;;;;;;;21.13;19.08;;;20.90;88.40;;;;;;5095237;28;20043;-37
2021/06/29 00:36:29;;;;;;;25.88;20.80;;;20.80;88.40;;;;;;5094073;28;20058;-37
2021/06/29 00:38:55;;;;;;;23.73;21.23;;;20.80;88.50;;;;;;5094849;28;20361;-37
2021/06/29 00:41:20;;;;;;;25.40;22.45;;;20.80;88.60;;;;;;5094688;28;20027;-36
2021/06/29 00:43:50;;;;;;;29.25;26.13;;;20.80;88.40;;;;;;5094544;28;20016;-37
2021/06/29 00:46:17;;;;;;;26.75;24.02;;;20.80;88.40;;;;;;5094792;28;20104;-37
2021/06/29 00:48:44;;;;;;;27.10;23.95;;;20.90;88.00;;;;;;5076454;28;20046;-37
2021/06/29 00:51:14;;;;;;;26.80;23.25;;;20.80;88.10;;;;;;5093538;28;20028;-37
2021/06/29 00:53:41;;;;;;;35.90;24.58;;;20.80;88.20;;;;;;5094835;28;20032;-37
2021/06/29 00:56:13;;;;;;;30.67;23.58;;;20.80;88.40;;;;;;5094466;28;20032;-37
2021/06/29 00:58:46;;;;;;;29.90;24.48;;;20.80;88.50;;;;;;5094692;28;20024;-37
2021/06/29 01:01:13;;;;;;;24.98;22.52;;;20.70;89.00;;;;;;5094508;28;20024;-37
2021/06/29 01:03:39;;;;;;;25.88;22.52;;;20.70;89.40;;;;;;5094394;28;20074;-37
2021/06/29 01:06:06;;;;;;;24.73;22.23;;;20.60;89.40;;;;;;5094385;28;20045;-37
2021/06/29 01:08:32;;;;;;;23.23;20.83;;;20.60;89.70;;;;;;5094323;28;20071;-37
2021/06/29 01:10:58;;;;;;;26.05;23.25;;;20.60;89.60;;;;;;5094756;28;20028;-36
2021/06/29 01:13:38;;;;;;;27.25;22.92;;;20.60;89.60;;;;;;5094478;28;20024;-37
2021/06/29 01:16:06;;;;;;;28.35;25.25;;;20.50;89.80;;;;;;5094380;28;20099;-37
2021/06/29 01:18:33;;;;;;;32.50;26.58;;;20.50;90.00;;;;;;5094356;28;20040;-37
2021/06/29 01:20:59;;;;;;;33.63;27.95;;;20.80;88.90;;;;;;5094311;28;20020;-37
2021/06/29 01:23:27;;;;;;;28.55;25.38;;;20.70;88.80;;;;;;5094336;28;20030;-38
2021/06/29 01:31:15;;;;;;;36.97;31.13;;;20.50;89.30;;;;;;5094398;28;20024;-37
2021/06/29 01:33:44;;;;;;;43.60;32.83;;;20.40;89.30;;;;;;5094003;28;20056;-38
2021/06/29 01:36:13;;;;;;;36.67;31.60;;;20.50;89.20;;;;;;5075691;28;20139;-35
2021/06/29 01:38:38;;;;;;;36.35;32.38;;;20.40;89.30;;;;;;5093823;28;20066;-35
2021/06/29 01:41:04;;;;;;;41.35;34.25;;;20.40;89.10;;;;;;5093985;28;20048;-36
2021/06/29 01:43:40;;;;;;;43.65;36.72;;;20.60;88.90;;;;;;5094489;28;20024;-35
2021/06/29 01:46:06;;;;;;;41.63;36.63;;;20.50;88.70;;;;;;5096174;28;20028;-36
2021/06/29 01:48:32;;;;;;;41.05;34.67;;;20.70;88.80;;;;;;5097777;28;20035;-37
2021/06/29 01:50:58;;;;;;;38.95;33.83;;;20.60;88.30;;;;;;5079729;28;20479;-36
2021/06/29 01:53:24;;;;;;;40.88;34.80;;;20.50;88.80;;;;;;5098395;28;20028;-36
2021/06/29 01:55:50;;;;;;;41.30;33.72;;;20.60;88.50;;;;;;5097949;28;20028;-38
2021/06/29 01:58:24;;;;;;;41.05;36.63;;;20.60;88.40;;;;;;5097207;28;20027;-37
2021/06/29 02:00:50;;;;;;;40.90;34.90;;;20.60;88.20;;;;;;5098109;28;20061;-36
2021/06/29 02:03:15;;;;;;;41.83;35.88;;;20.70;88.00;;;;;;5097895;28;20024;-36
2021/06/29 02:05:41;;;;;;;40.55;34.22;;;20.80;87.70;;;;;;5097752;28;20024;-37
2021/06/29 02:08:07;;;;;;;40.75;35.47;;;20.80;87.90;;;;;;5098251;28;20108;-36
2021/06/29 02:10:32;;;;;;;41.03;33.10;;;20.80;87.80;;;;;;5098023;28;20028;-37
2021/06/29 02:12:58;;;;;;;39.50;33.22;;;20.60;88.20;;;;;;5097655;28;20020;-36
2021/06/29 02:15:25;;;;;;;36.17;32.20;;;20.50;88.70;;;;;;5097688;28;20035;-37
2021/06/29 02:17:50;;;;;;;38.85;32.72;;;20.50;88.90;;;;;;5096956;28;20111;-37
2021/06/29 02:20:17;;;;;;;38.05;33.00;;;20.60;89.00;;;;;;5097308;28;20106;-37
2021/06/29 02:22:45;;;;;;;34.03;30.08;;;20.60;88.60;;;;;;5079341;28;20016;-37
2021/06/29 02:25:11;;;;;;;33.63;30.10;;;20.50;88.90;;;;;;5097528;28;20523;-36
2021/06/29 02:27:37;;;;;;;36.15;30.80;;;20.40;89.40;;;;;;5097373;28;20024;-37
2021/06/29 02:30:04;;;;;;;38.83;30.98;;;20.30;89.70;;;;;;5096989;28;20039;-36
2021/06/29 02:32:29;;;;;;;36.78;32.70;;;20.30;90.20;;;;;;5096862;28;20114;-36
2021/06/29 02:34:55;;;;;;;34.47;29.25;;;20.30;89.80;;;;;;5096559;28;20117;-37
2021/06/29 02:37:21;;;;;;;31.48;28.17;;;20.50;88.90;;;;;;5096771;28;20118;-36
2021/06/29 02:39:47;;;;;;;29.77;26.27;;;20.50;88.30;;;;;;5097168;28;20051;-36
2021/06/29 02:42:13;;;;;;;28.17;25.10;;;20.50;88.20;;;;;;5096943;28;20020;-36
2021/06/29 02:44:41;;;;;;;28.25;25.35;;;20.30;88.20;;;;;;5096833;28;20395;-37
2021/06/29 02:47:07;;;;;;;25.60;23.00;;;20.30;88.40;;;;;;5096424;28;20077;-37
2021/06/29 02:49:33;;;;;;;26.15;23.50;;;20.50;87.80;;;;;;5096688;28;20407;-36
2021/06/29 02:51:58;;;;;;;27.45;24.55;;;20.40;87.90;;;;;;5096870;28;20020;-37
2021/06/29 02:54:24;;;;;;;27.65;24.52;;;20.30;88.60;;;;;;5096990;28;20463;-37
2021/06/29 02:56:50;;;;;;;25.17;21.55;;;20.10;88.80;;;;;;5096186;28;20042;-37
2021/06/29 02:59:16;;;;;;;21.88;19.50;;;20.00;89.00;;;;;;5096263;28;20034;-37
2021/06/29 03:01:43;;;;;;;21.70;19.20;;;20.10;88.60;;;;;;5096442;28;20032;-36
2021/06/29 03:04:10;;;;;;;21.67;19.38;;;20.00;88.70;;;;;;5096536;28;20056;-36
2021/06/29 03:06:36;;;;;;;22.98;20.67;;;20.00;88.80;;;;;;5096780;28;20028;-37
2021/06/29 03:09:04;;;;;;;22.23;19.83;;;20.10;88.60;;;;;;5096676;28;20360;-37
2021/06/29 03:11:30;;;;;;;23.58;20.20;;;20.00;89.40;;;;;;5097057;28;20035;-36
2021/06/29 03:13:55;;;;;;;25.90;21.65;;;20.00;89.30;;;;;;5096828;28;20380;-37
2021/06/29 03:16:21;;;;;;;23.15;20.65;;;20.00;89.00;;;;;;5096572;28;20032;-37
2021/06/29 03:18:47;;;;;;;24.02;21.42;;;19.80;89.50;;;;;;5096192;28;20106;-36
2021/06/29 03:21:13;;;;;;;26.00;23.17;;;19.80;89.80;;;;;;5096325;28;20028;-37
2021/06/29 03:23:39;;;;;;;26.50;22.83;;;19.80;90.10;;;;;;5096072;28;20375;-37
2021/06/29 03:26:05;;;;;;;27.90;24.00;;;19.80;90.00;;;;;;5096472;28;20077;-38
2021/06/29 03:28:31;;;;;;;26.90;24.08;;;19.80;89.90;;;;;;5096103;28;20422;-38
2021/06/29 03:30:57;;;;;;;25.70;22.88;;;19.70;90.30;;;;;;5096113;28;20092;-37
2021/06/29 03:33:23;;;;;;;28.35;23.77;;;19.60;90.70;;;;;;5095809;28;20055;-37
2021/06/29 03:35:48;;;;;;;25.65;20.98;;;19.70;90.50;;;;;;5095919;28;20020;-38
2021/06/29 03:38:14;;;;;;;20.45;18.33;;;19.70;90.00;;;;;;5096585;28;20023;-38
2021/06/29 03:40:41;;;;;;;20.25;18.15;;;19.60;90.00;;;;;;5095587;28;20481;-37
2021/06/29 03:43:06;;;;;;;18.60;16.70;;;19.40;90.30;;;;;;5095714;28;20020;-38
2021/06/29 03:45:32;;;;;;;20.70;17.83;;;19.40;90.60;;;;;;5095718;28;20566;-37
2021/06/29 03:47:58;;;;;;;23.05;20.58;;;19.30;91.00;;;;;;5095317;28;20464;-38
2021/06/29 03:50:27;;;;;;;21.23;19.02;;;19.30;91.10;;;;;;5095052;28;20016;-37
2021/06/29 03:52:53;;;;;;;20.08;17.42;;;19.20;91.40;;;;;;5095182;28;20056;-37
2021/06/29 03:55:20;;;;;;;22.30;17.30;;;19.10;91.50;;;;;;5095076;28;20020;-38
2021/06/29 03:57:45;;;;;;;18.00;16.10;;;19.10;91.40;;;;;;5095436;28;20050;-37
2021/06/29 04:00:12;;;;;;;20.50;17.45;;;19.00;91.50;;;;;;5095627;28;20017;-38
2021/06/29 04:02:38;;;;;;;19.60;17.52;;;19.20;91.20;;;;;;5095745;28;20024;-35
2021/06/29 04:05:05;;;;;;;22.67;17.58;;;19.30;90.40;;;;;;5095305;28;20089;-36
2021/06/29 04:07:31;;;;;;;20.40;17.00;;;19.30;89.70;;;;;;5095526;28;20020;-36
2021/06/29 04:09:57;;;;;;;18.05;16.13;;;19.30;90.10;;;;;;5095507;28;20024;-36
2021/06/29 04:12:23;;;;;;;18.15;16.00;;;19.10;90.60;;;;;;5095439;28;20028;-37
2021/06/29 04:14:48;;;;;;;18.98;15.25;;;19.10;90.80;;;;;;5095437;28;20028;-38
2021/06/29 04:17:14;;;;;;;19.92;16.05;;;19.20;90.70;;;;;;5095859;28;20059;-36
2021/06/29 04:19:41;;;;;;;20.38;15.07;;;19.30;90.30;;;;;;5094864;28;20024;-36
2021/06/29 04:22:07;;;;;;;19.90;16.27;;;19.30;90.00;;;;;;5095167;28;20025;-47
2021/06/29 04:24:33;;;;;;;16.88;15.07;;;19.30;89.60;;;;;;5094904;28;20023;-37
2021/06/29 04:26:59;;;;;;;17.33;15.45;;;19.40;89.20;;;;;;5094916;28;20020;-36
2021/06/29 04:29:25;;;;;;;18.10;16.30;;;19.50;89.20;;;;;;5094724;28;20020;-37
2021/06/29 04:31:51;;;;;;;17.95;16.13;;;19.60;89.00;;;;;;5094963;28;20024;-37
2021/06/29 04:34:16;;;;;;;15.65;14.05;;;19.50;89.10;;;;;;5094792;28;20044;-37
2021/06/29 04:36:42;;;;;;;16.42;13.70;;;19.40;89.20;;;;;;5094808;28;20035;-37
2021/06/29 04:39:08;;;;;;;15.10;12.93;;;19.40;89.60;;;;;;5094695;28;20020;-37
2021/06/29 04:41:34;;;;;;;14.52;11.93;;;19.40;89.70;;;;;;5095226;28;20031;-37
2021/06/29 04:44:00;;;;;;;14.40;12.40;;;19.40;89.70;;;;;;5094267;28;20024;-36
2021/06/29 04:46:26;;;;;;;13.65;12.18;;;19.50;89.10;;;;;;5076602;28;20035;-36
2021/06/29 04:48:52;;;;;;;13.50;12.15;;;19.70;88.50;;;;;;5094742;28;20387;-36
2021/06/29 04:51:17;;;;;;;17.90;12.10;;;19.80;88.30;;;;;;5094387;28;20092;-36
2021/06/29 04:53:43;;;;;;;14.82;11.05;;;19.80;88.00;;;;;;5095165;28;20107;-36
2021/06/29 04:56:18;;;;;;;15.23;12.95;;;19.90;88.00;;;;;;5076077;28;20408;-36
2021/06/29 04:58:52;;;;;;;10.88;9.77;;;19.90;87.60;;;;;;5094578;28;20024;-37
2021/06/29 05:01:18;;;;;;;15.05;12.63;;;20.00;87.40;;;;;;5094130;28;20443;-36
2021/06/29 05:03:44;;;;;;;13.30;11.85;;;20.10;87.40;;;;;;5076671;28;20028;-37
2021/06/29 05:06:09;;;;;;;18.85;13.25;;;19.80;88.40;;;;;;5094147;28;20016;-38
2021/06/29 05:08:35;;;;;;;18.40;16.38;;;19.80;88.60;;;;;;5094229;28;20016;-38
2021/06/29 05:11:01;;;;;;;19.38;16.27;;;20.00;88.10;;;;;;5095198;28;20050;-38
2021/06/29 05:13:27;;;;;;;22.40;17.52;;;20.20;87.60;;;;;;5093954;28;20108;-38
2021/06/29 05:15:53;;;;;;;26.45;19.58;;;20.20;87.70;;;;;;5075637;28;20042;-38
2021/06/29 05:18:18;;;;;;;27.45;21.55;;;20.10;87.80;;;;;;5093774;28;20024;-36
2021/06/29 05:20:44;;;;;;;35.35;28.35;;;20.10;88.10;;;;;;5094397;28;20073;-36
2021/06/29 05:23:09;;;;;;;34.78;25.95;;;19.80;88.60;;;;;;5099026;28;20028;-37
2021/06/29 05:25:35;;;;;;;39.30;27.17;;;19.90;88.80;;;;;;5097978;28;20020;-37
2021/06/29 05:28:01;;;;;;;39.35;29.45;;;20.00;88.40;;;;;;5098194;28;20044;-37
2021/06/29 05:30:27;;;;;;;47.83;34.55;;;20.10;88.00;;;;;;5098398;28;20108;-37
2021/06/29 05:32:52;;;;;;;46.58;32.55;;;20.00;88.30;;;;;;5098096;28;20039;-37
2021/06/29 05:35:18;;;;;;;54.03;38.05;;;20.10;88.10;;;;;;5098245;28;20032;-37
2021/06/29 05:37:44;;;;;;;52.05;35.45;;;20.00;88.10;;;;;;5097686;28;20104;-37
2021/06/29 05:40:10;;;;;;;54.15;37.97;;;19.90;88.80;;;;;;5097880;28;20120;-37
2021/06/29 05:42:36;;;;;;;63.13;36.55;;;19.80;89.10;;;;;;5097589;28;20028;-38
2021/06/29 05:45:03;;;;;;;55.65;37.63;;;19.90;88.90;;;;;;5079443;28;20024;-37
2021/06/29 05:47:31;;;;;;;54.78;34.33;;;20.10;88.00;;;;;;5097602;28;20020;-37
2021/06/29 05:49:57;;;;;;;49.78;32.58;;;19.90;88.40;;;;;;5079003;28;20388;-39
2021/06/29 05:52:23;;;;;;;44.13;29.25;;;20.10;88.10;;;;;;5097811;28;20020;-38
2021/06/29 05:54:49;;;;;;;50.63;29.75;;;20.10;87.70;;;;;;5096551;28;20479;-37
2021/06/29 05:57:15;;;;;;;40.20;26.48;;;20.30;87.10;;;;;;5063119;28;20052;-38
2021/06/29 05:59:41;;;;;;;32.13;23.23;;;20.50;86.10;;;;;;5097323;28;20027;-38
2021/06/29 06:02:08;;;;;;;29.23;23.30;;;20.10;87.10;;;;;;5097294;28;20020;-37
2021/06/29 06:04:34;;;;;;;24.98;18.77;;;20.40;86.70;;;;;;5097299;28;20428;-37
2021/06/29 06:07:00;;;;;;;21.95;19.42;;;20.80;84.60;;;;;;5097583;28;20028;-37
2021/06/29 06:09:26;;;;;;;24.45;18.33;;;20.80;84.50;;;;;;5098880;28;20360;-37
2021/06/29 06:11:52;;;;;;;22.08;16.90;;;20.80;85.00;;;;;;5098498;28;20499;-38
2021/06/29 06:14:17;;;;;;;27.25;19.80;;;20.80;84.20;;;;;;5097937;28;20056;-37
2021/06/29 06:16:43;;;;;;;22.52;18.58;;;20.80;83.80;;;;;;5098439;28;20036;-36
2021/06/29 06:19:09;;;;;;;23.65;19.40;;;20.80;84.80;;;;;;5096645;28;20028;-36
2021/06/29 06:21:35;;;;;;;30.05;22.55;;;20.70;84.50;;;;;;5096354;28;20460;-38
2021/06/29 06:24:00;;;;;;;25.85;19.83;;;20.80;84.00;;;;;;5078635;28;20032;-37
2021/06/29 06:26:26;;;;;;;28.48;20.05;;;20.80;84.50;;;;;;5095914;28;20024;-37
2021/06/29 06:28:52;;;;;;;31.00;21.63;;;20.70;84.50;;;;;;5096990;28;20486;-37
2021/06/29 06:31:18;;;;;;;27.15;21.85;;;20.50;85.10;;;;;;5095732;28;20028;-37
2021/06/29 06:33:43;;;;;;;30.08;23.05;;;20.50;85.10;;;;;;5095905;28;20044;-38
2021/06/29 06:36:10;;;;;;;25.88;20.98;;;20.80;84.00;;;;;;5095896;28;20024;-43
2021/06/29 06:38:36;;;;;;;26.20;19.60;;;20.90;83.50;;;;;;5096183;28;20115;-37
2021/06/29 06:41:02;;;;;;;30.55;21.88;;;21.30;83.00;;;;;;5096053;28;20433;-37
2021/06/29 06:43:28;;;;;;;31.50;23.90;;;21.50;81.60;;;;;;5096789;28;20020;-37
2021/06/29 06:45:54;;;;;;;32.00;20.85;;;21.30;82.00;;;;;;5095948;28;20031;-37
2021/06/29 06:48:19;;;;;;;24.60;20.02;;;21.30;82.20;;;;;;5095663;28;20119;-37
2021/06/29 06:50:45;;;;;;;30.42;23.35;;;21.10;83.20;;;;;;5095788;28;20149;-37
2021/06/29 06:53:11;;;;;;;25.58;21.42;;;20.80;84.10;;;;;;5095941;28;20039;-37
2021/06/29 06:55:36;;;;;;;30.38;22.30;;;20.80;84.10;;;;;;5096001;28;20032;-37
2021/06/29 06:58:02;;;;;;;32.92;22.70;;;20.70;84.70;;;;;;5095678;28;20525;-36
2021/06/29 07:00:30;;;;;;;30.48;23.38;;;20.70;84.50;;;;;;5095553;28;20115;-36
2021/06/29 07:02:55;;;;;;;28.95;23.17;;;20.70;84.70;;;;;;5096044;28;20020;-37
2021/06/29 07:05:21;;;;;;;28.63;22.98;;;20.40;85.60;;;;;;5095530;28;20463;-36
2021/06/29 07:07:47;;;;;;;29.52;24.20;;;20.30;85.10;;;;;;5095543;28;20054;-36
2021/06/29 07:10:13;;;;;;;32.97;24.15;;;20.50;85.00;;;;;;5095541;28;20020;-37
2021/06/29 07:12:39;;;;;;;34.03;25.52;;;20.60;84.90;;;;;;5095633;28;20031;-37
2021/06/29 07:15:07;;;;;;;36.20;28.80;;;20.80;84.10;;;;;;5095534;28;20028;-37
2021/06/29 07:17:34;;;;;;;45.22;34.40;;;20.80;84.50;;;;;;5094404;28;20502;-37
2021/06/29 07:20:00;;;;;;;46.95;34.28;;;20.50;85.20;;;;;;5095062;28;20040;-37
2021/06/29 07:22:25;;;;;;;46.95;36.28;;;20.50;85.30;;;;;;5076984;28;20028;-37
2021/06/29 07:24:51;;;;;;;51.53;36.10;;;20.40;85.20;;;;;;5094265;28;20021;-37
2021/06/29 07:27:17;;;;;;;48.80;38.97;;;20.80;84.40;;;;;;5095002;28;20445;-36
2021/06/29 07:29:43;;;;;;;42.50;33.05;;;20.80;84.20;;;;;;5095338;28;20059;-39
2021/06/29 07:32:09;;;;;;;42.78;32.75;;;21.00;83.20;;;;;;5095303;28;20100;-36
2021/06/29 07:34:34;;;;;;;43.55;34.75;;;21.00;83.40;;;;;;5095094;28;20048;-36
2021/06/29 07:37:00;;;;;;;40.90;31.20;;;21.10;82.60;;;;;;5094049;28;20030;-36
2021/06/29 07:39:26;;;;;;;38.17;29.60;;;20.80;82.90;;;;;;5094711;28;20024;-36
2021/06/29 07:41:52;;;;;;;40.25;29.77;;;21.20;82.10;;;;;;5094784;28;20020;-37
2021/06/29 07:44:18;;;;;;;34.13;29.08;;;21.20;81.90;;;;;;5094360;28;20027;-38
2021/06/29 07:46:43;;;;;;;34.58;26.30;;;21.30;81.50;;;;;;5095140;28;20032;-37
2021/06/29 07:49:09;;;;;;;35.50;26.55;;;21.50;80.10;;;;;;5076832;28;20024;-37
2021/06/29 07:51:35;;;;;;;35.03;28.67;;;21.50;80.10;;;;;;5076778;28;20476;-37
2021/06/29 07:54:01;;;;;;;31.33;25.92;;;21.70;79.60;;;;;;5076640;28;20032;-38
2021/06/29 07:56:27;;;;;;;29.77;23.92;;;21.30;81.10;;;;;;5094862;28;20020;-37
2021/06/29 07:58:53;;;;;;;31.30;25.23;;;21.30;81.30;;;;;;5094485;28;20391;-38
2021/06/29 08:01:19;;;;;;;31.65;26.95;;;21.60;80.40;;;;;;5094728;28;20024;-37
2021/06/29 08:03:46;;;;;;;29.45;23.98;;;21.60;80.70;;;;;;5094767;28;20468;-39
2021/06/29 08:06:12;;;;;;;31.45;26.80;;;21.80;80.00;;;;;;5094593;28;20020;-37
2021/06/29 08:08:38;;;;;;;24.10;21.25;;;22.00;77.80;;;;;;5094346;28;20024;-36
2021/06/29 08:11:07;;;;;;;24.33;21.08;;;22.20;77.70;;;;;;5094709;28;20022;-36
2021/06/29 08:13:33;;;;;;;21.33;18.77;;;22.50;75.40;;;;;;5094590;28;20028;-36
2021/06/29 08:15:59;;;;;;;24.70;19.67;;;22.50;75.60;;;;;;5094217;28;20016;-39
2021/06/29 08:18:28;;;;;;;26.10;21.42;;;22.50;75.10;;;;;;5094147;28;20361;-36
2021/06/29 08:20:57;;;;;;;21.33;19.20;;;22.20;76.70;;;;;;5093833;28;20027;-37
2021/06/29 08:23:24;;;;;;;38.88;22.75;;;21.80;78.10;;;;;;5094397;28;20085;-37
2021/06/29 08:25:50;;;;;;;24.20;19.02;;;22.00;77.10;;;;;;5094192;28;20028;-37
2021/06/29 08:28:16;;;;;;;26.45;19.95;;;22.10;76.50;;;;;;5093359;28;20072;-37
2021/06/29 08:30:42;;;;;;;21.90;18.45;;;22.40;75.40;;;;;;5093439;28;20020;-37
2021/06/29 08:33:12;;;;;;;23.35;18.77;;;22.40;75.80;;;;;;5094218;28;20040;-36
2021/06/29 08:35:43;;;;;;;20.70;18.08;;;22.80;74.50;;;;;;5095019;28;20057;-37
2021/06/29 08:38:09;;;;;;;23.77;18.48;;;22.80;74.60;;;;;;5094253;28;20028;-47
2021/06/29 08:40:37;;;;;;;21.58;17.00;;;22.30;76.20;;;;;;5094308;28;20036;-37
2021/06/29 08:43:07;;;;;;;24.38;19.65;;;22.20;76.80;;;;;;5094294;28;20023;-38
2021/06/29 08:45:33;;;;;;;21.65;18.73;;;22.20;76.90;;;;;;5093996;28;20032;-38
2021/06/29 08:48:01;;;;;;;23.20;19.48;;;22.30;76.20;;;;;;5094578;28;20054;-40
2021/06/29 08:50:30;;;;;;;25.67;19.38;;;22.20;76.50;;;;;;5094108;28;20035;-39
2021/06/29 08:53:01;;;;;;;24.73;21.83;;;22.30;76.30;;;;;;5076460;28;20086;-40
2021/06/29 08:55:35;;;;;;;25.33;19.77;;;22.50;75.40;;;;;;5092383;28;20659;-37
2021/06/29 08:58:00;;;;;;;23.40;19.23;;;22.60;75.00;;;;;;5076997;28;20069;-48
2021/06/29 09:00:26;;;;;;;29.40;18.20;;;23.30;72.00;;;;;;5093103;28;20472;-47
2021/06/29 09:02:52;;;;;;;25.33;17.77;;;23.60;71.90;;;;;;5092959;28;20045;-47
2021/06/29 09:05:28;;;;;;;20.67;17.55;;;23.50;71.50;;;;;;5093347;28;20062;-46
2021/06/29 09:08:13;;;;;;;21.33;17.48;;;24.30;69.40;;;;;;5093818;28;20028;-50
2021/06/29 09:10:43;;;;;;;20.40;15.35;;;24.50;68.80;;;;;;5092852;28;20024;-48
2021/06/29 09:13:10;;;;;;;21.40;16.70;;;24.90;67.20;;;;;;5077221;28;20058;-47
2021/06/29 09:15:47;;;;;;;25.70;20.48;;;24.80;67.10;;;;;;5094427;28;20499;-47
2021/06/29 09:18:17;;;;;;;32.47;25.40;;;23.60;69.60;;;;;;5094162;28;20024;-51
2021/06/29 09:20:48;;;;;;;36.20;28.27;;;22.70;72.60;;;;;;5094027;28;20036;-49
2021/06/29 09:23:21;;;;;;;42.22;31.17;;;22.40;73.00;;;;;;5094235;28;20031;-51
2021/06/29 09:26:08;;;;;;;41.10;31.33;;;22.50;73.60;;;;;;5094460;28;20111;-48
2021/06/29 09:28:36;;;;;;;34.95;27.08;;;22.60;73.30;;;;;;5094156;28;20032;-50
2021/06/29 09:31:10;;;;;;;36.28;27.23;;;23.30;71.10;;;;;;5093057;28;20016;-50
2021/06/29 09:33:42;;;;;;;32.55;25.48;;;23.70;69.90;;;;;;5093471;28;20047;-47
2021/06/29 09:36:14;;;;;;;31.55;24.40;;;23.80;68.70;;;;;;5093508;28;20621;-48
2021/06/29 09:38:43;;;;;;;28.75;24.05;;;23.60;69.60;;;;;;5075973;28;20137;-47
2021/06/29 09:41:14;;;;;;;34.67;26.67;;;23.70;69.30;;;;;;5093104;28;20016;-47
2021/06/29 09:43:42;;;;;;;31.52;26.10;;;23.00;71.60;;;;;;5092990;28;20106;-51
2021/06/29 09:46:19;;;;;;;31.40;24.98;;;23.30;70.80;;;;;;5092629;28;20028;-46
2021/06/29 09:48:48;;;;;;;33.17;26.67;;;23.30;69.70;;;;;;5093161;28;20527;-49
2021/06/29 09:51:16;;;;;;;31.45;26.23;;;23.40;69.10;;;;;;5093088;28;20020;-37
2021/06/29 09:53:43;;;;;;;32.65;24.48;;;23.50;69.00;;;;;;5092767;28;20069;-37
2021/06/29 09:56:22;;;;;;;40.40;25.23;;;23.50;69.50;;;;;;5075382;28;20035;-37
2021/06/29 09:58:54;;;;;;;31.05;23.85;;;23.40;69.40;;;;;;5093073;28;20379;-37
2021/06/29 10:01:22;;;;;;;34.08;23.85;;;23.30;70.20;;;;;;5093050;28;20044;-37
2021/06/29 10:03:53;;;;;;;31.70;25.27;;;23.50;68.80;;;;;;5093054;28;20031;-37
2021/06/29 10:06:25;;;;;;;28.30;22.73;;;23.30;69.80;;;;;;5093002;28;20028;-40
2021/06/29 10:08:53;;;;;;;29.98;23.80;;;23.30;70.00;;;;;;5096787;28;20034;-37
2021/06/29 10:11:31;;;;;;;30.55;24.70;;;24.00;68.50;;;;;;5096525;28;20019;-40
2021/06/29 10:14:06;;;;;;;29.83;23.65;;;23.80;69.10;;;;;;5096736;28;20055;-37
2021/06/29 10:16:46;;;;;;;37.80;25.33;;;23.90;68.10;;;;;;5095947;28;20063;-37
2021/06/29 10:21:56;;;;;;;31.50;26.45;;;23.60;69.10;;;;;;5096682;28;20038;-37
2021/06/29 10:24:27;;;;;;;32.58;24.35;;;23.70;68.20;;;;;;5095773;28;20020;-37
2021/06/29 10:26:56;;;;;;;30.48;25.15;;;23.70;68.10;;;;;;5095895;28;20020;-37
2021/06/29 10:29:25;;;;;;;36.97;28.00;;;23.80;67.50;;;;;;5096044;28;20039;-37
2021/06/29 10:31:54;;;;;;;31.58;26.08;;;23.60;68.40;;;;;;5077764;28;20051;-37
2021/06/29 10:34:20;;;;;;;34.83;27.63;;;23.70;67.50;;;;;;5096840;28;20047;-37
2021/06/29 10:36:49;;;;;;;33.45;25.45;;;23.50;67.80;;;;;;5095808;28;20031;-37
2021/06/29 10:39:23;;;;;;;39.45;27.38;;;23.30;68.70;;;;;;5095759;28;20035;-37
2021/06/29 10:42:00;;;;;;;37.40;29.00;;;23.30;69.00;;;;;;5078219;28;20077;-40
2021/06/29 10:44:28;;;;;;;40.95;28.33;;;23.30;69.60;;;;;;5095268;28;20021;-37
2021/06/29 10:46:55;;;;;;;37.25;29.45;;;23.70;68.30;;;;;;5077389;28;20077;-37
2021/06/29 10:49:35;;;;;;;36.35;28.50;;;24.60;65.30;;;;;;5095782;28;20556;-37
2021/06/29 10:52:05;;;;;;;36.10;28.35;;;24.90;64.40;;;;;;5096183;28;20475;-38
2021/06/29 10:54:42;;;;;;;34.45;26.15;;;25.10;64.00;;;;;;5095376;28;20028;-37
2021/06/29 10:57:11;;;;;;;31.73;24.90;;;26.10;60.90;;;;;;5095817;28;20032;-38
2021/06/29 10:59:40;;;;;;;37.00;27.27;;;26.10;60.20;;;;;;5096155;28;20024;-38
2021/06/29 11:02:07;;;;;;;34.88;27.15;;;25.80;60.20;;;;;;5077214;28;20028;-37
2021/06/29 11:04:58;;;;;;;31.40;24.42;;;24.80;63.10;;;;;;5095772;28;20020;-38
2021/06/29 11:07:27;;;;;;;30.15;25.42;;;24.60;63.00;;;;;;5096272;28;20466;-37
2021/06/29 11:09:54;;;;;;;28.25;22.83;;;24.30;64.50;;;;;;5094675;28;20030;-42
2021/06/29 11:12:23;;;;;;;29.27;22.45;;;24.20;65.00;;;;;;5095851;28;20073;-38
2021/06/29 11:14:51;;;;;;;32.38;23.80;;;24.10;66.00;;;;;;5094815;28;20020;-37
2021/06/29 11:17:26;;;;;;;29.17;23.73;;;24.00;65.20;;;;;;5077879;28;20059;-37
2021/06/29 11:20:00;;;;;;;29.77;23.55;;;23.70;66.10;;;;;;5094939;28;20487;-36
2021/06/29 11:22:49;;;;;;;31.92;23.73;;;23.80;65.80;;;;;;5096329;28;20476;-36
2021/06/29 11:25:29;;;;;;;26.65;21.85;;;24.30;64.10;;;;;;5076962;28;20016;-37
2021/06/29 11:28:21;;;;;;;28.65;21.88;;;25.00;62.60;;;;;;5095702;28;20486;-37
2021/06/29 11:30:53;;;;;;;26.90;21.27;;;24.30;64.30;;;;;;5095368;28;20032;-37
2021/06/29 11:33:47;;;;;;;23.75;19.85;;;24.60;62.60;;;;;;5095107;28;20212;-44
2021/06/29 11:36:30;;;;;;;24.98;20.42;;;25.70;58.70;;;;;;5094834;28;20020;-37
2021/06/29 11:39:20;;;;;;;24.60;20.17;;;25.80;59.10;;;;;;5095587;28;20467;-36
2021/06/29 11:41:53;;;;;;;23.33;18.83;;;25.80;58.30;;;;;;5090062;28;20040;-38
2021/06/29 11:44:19;;;;;;;26.48;18.73;;;25.60;59.80;;;;;;5095713;28;20122;-37
2021/06/29 11:47:06;;;;;;;27.90;24.50;;;24.70;61.40;;;;;;5095120;28;20400;-37
2021/06/29 11:49:37;;;;;;;29.08;23.70;;;25.50;60.40;;;;;;5095038;28;20031;-37
2021/06/29 11:52:06;;;;;;;32.80;25.80;;;26.20;58.60;;;;;;5095037;28;20058;-37
2021/06/29 11:54:38;;;;;;;30.88;25.98;;;25.70;59.50;;;;;;5094983;28;20432;-37
2021/06/29 11:57:25;;;;;;;30.95;25.63;;;25.10;61.00;;;;;;5095285;28;20023;-38
2021/06/29 11:59:54;;;;;;;32.85;27.75;;;25.00;61.20;;;;;;5094915;28;20028;-37
2021/06/29 12:02:23;;;;;;;31.73;26.02;;;25.80;59.50;;;;;;5094996;28;20104;-36
2021/06/29 12:05:19;;;;;;;21.58;17.58;;;26.90;56.10;;;;;;5096159;28;20127;-37
2021/06/29 12:08:14;;;;;;;22.77;17.42;;;26.60;52.50;;;;;;5094985;28;20078;-36
2021/06/29 12:10:46;;;;;;;24.35;17.88;;;25.80;55.30;;;;;;5084828;28;20036;-37
2021/06/29 12:13:14;;;;;;;16.77;13.18;;;27.00;53.60;;;;;;5094910;28;20021;-37
2021/06/29 12:15:42;;;;;;;19.55;13.95;;;26.80;52.00;;;;;;5094671;28;20020;-37
2021/06/29 12:18:25;;;;;;;22.55;16.88;;;27.00;51.40;;;;;;5095019;28;20065;-37
2021/06/29 12:20:56;;;;;;;21.27;17.77;;;27.00;51.20;;;;;;5077259;28;20043;-37
2021/06/29 12:23:28;;;;;;;19.65;16.40;;;26.80;51.30;;;;;;5094666;28;20043;-37
2021/06/29 12:25:55;;;;;;;22.73;19.33;;;26.40;52.90;;;;;;5076343;28;20052;-37
2021/06/29 12:28:23;;;;;;;29.80;24.10;;;27.20;52.60;;;;;;5094204;28;20020;-37
2021/06/29 12:30:56;;;;;;;29.95;24.00;;;27.90;50.80;;;;;;5094190;28;20027;-37
2021/06/29 12:33:29;;;;;;;28.00;23.85;;;28.50;49.00;;;;;;5094760;28;20052;-38
2021/06/29 12:36:00;;;;;;;24.92;19.98;;;29.00;47.00;;;;;;5094262;28;20036;-39
2021/06/29 12:38:28;;;;;;;26.00;20.13;;;28.60;47.00;;;;;;5076547;28;20032;-38
2021/06/29 12:41:04;;;;;;;22.85;18.63;;;28.00;48.60;;;;;;5093887;28;20039;-38
2021/06/29 12:43:38;;;;;;;24.00;18.88;;;27.80;48.70;;;;;;5094126;28;20016;-41